sensor_id;sensor_type;location;lat;lon;timestamp;pressure;altitude;pressure_sealevel;temperature;humidity
70314;BME280;57725;47.526;18.986;2023-04-25T00:00:50;98743.06;;;15.15;93.02
70314;BME280;57725;47.526;18.986;2023-04-25T00:03:17;98743.06;;;15.15;92.85
70314;BME280;57725;47.526;18.986;2023-04-25T00:05:43;98741.50;;;15.13;92.97
70314;BME280;57725;47.526;18.986;2023-04-25T00:08:12;98736.13;;;15.14;93.14
70314;BME280;57725;47.526;18.986;2023-04-25T00:10:40;98733.72;;;15.11;93.04
70314;BME280;57725;47.526;18.986;2023-04-25T00:13:08;98731.09;;;15.11;92.84
70314;BME280;57725;47.526;18.986;2023-04-25T00:15:34;98738.03;;;15.12;93.10
70314;BME280;57725;47.526;18.986;2023-04-25T00:18:01;98734.56;;;15.12;92.94
70314;BME280;57725;47.526;18.986;2023-04-25T00:20:29;98732.78;;;15.12;92.82
70314;BME280;57725;47.526;18.986;2023-04-25T00:22:55;98721.56;;;15.10;92.72
70314;BME280;57725;47.526;18.986;2023-04-25T00:25:23;98725.97;;;15.10;92.75
70314;BME280;57725;47.526;18.986;2023-04-25T00:27:48;98728.63;;;15.10;93.09
70314;BME280;57725;47.526;18.986;2023-04-25T00:30:14;98723.34;;;15.10;93.05
70314;BME280;57725;47.526;18.986;2023-04-25T00:32:40;98720.84;;;15.08;92.96
70314;BME280;57725;47.526;18.986;2023-04-25T00:35:08;98722.50;;;15.09;92.98
70314;BME280;57725;47.526;18.986;2023-04-25T00:37:36;98711.25;;;15.07;92.99
70314;BME280;57725;47.526;18.986;2023-04-25T00:40:05;98713.91;;;15.07;93.18
70314;BME280;57725;47.526;18.986;2023-04-25T00:42:31;98707.78;;;15.07;93.04
70314;BME280;57725;47.526;18.986;2023-04-25T00:44:59;98713.06;;;15.07;93.18
70314;BME280;57725;47.526;18.986;2023-04-25T00:47:25;98708.88;;;15.04;92.92
70314;BME280;57725;47.526;18.986;2023-04-25T00:49:50;98714.97;;;15.05;92.93
70314;BME280;57725;47.526;18.986;2023-04-25T00:52:16;98716.75;;;15.04;92.94
70314;BME280;57725;47.526;18.986;2023-04-25T00:54:44;98697.50;;;15.04;93.19
70314;BME280;57725;47.526;18.986;2023-04-25T00:57:12;98702.78;;;15.04;93.15
70314;BME280;57725;47.526;18.986;2023-04-25T00:59:44;98691.78;;;14.99;93.21
70314;BME280;57725;47.526;18.986;2023-04-25T01:02:12;98692.25;;;15.04;93.16
70314;BME280;57725;47.526;18.986;2023-04-25T01:04:38;98692.34;;;15.02;92.99
70314;BME280;57725;47.526;18.986;2023-04-25T01:07:04;98686.25;;;15.02;93.12
70314;BME280;57725;47.526;18.986;2023-04-25T01:09:33;98673.22;;;15.00;92.97
70314;BME280;57725;47.526;18.986;2023-04-25T01:11:59;98681.09;;;15.00;92.99
70314;BME280;57725;47.526;18.986;2023-04-25T01:14:27;98681.25;;;14.99;92.99
70314;BME280;57725;47.526;18.986;2023-04-25T01:16:52;98681.09;;;15.00;93.08
70314;BME280;57725;47.526;18.986;2023-04-25T01:19:19;98680.31;;;15.00;93.02
70314;BME280;57725;47.526;18.986;2023-04-25T01:21:45;98676.94;;;14.98;93.30
70314;BME280;57725;47.526;18.986;2023-04-25T01:24:11;98677.78;;;14.98;93.15
70314;BME280;57725;47.526;18.986;2023-04-25T01:26:40;98688.31;;;14.98;93.20
70314;BME280;57725;47.526;18.986;2023-04-25T01:29:12;98673.47;;;14.97;93.21
70314;BME280;57725;47.526;18.986;2023-04-25T01:31:38;98672.75;;;14.95;93.14
70314;BME280;57725;47.526;18.986;2023-04-25T01:34:11;98664.88;;;14.95;93.08
70314;BME280;57725;47.526;18.986;2023-04-25T01:36:36;98665.81;;;14.94;93.13
70314;BME280;57725;47.526;18.986;2023-04-25T01:39:02;98665.81;;;14.94;93.33
70314;BME280;57725;47.526;18.986;2023-04-25T01:41:30;98666.66;;;14.95;93.15
70314;BME280;57725;47.526;18.986;2023-04-25T01:44:00;98667.63;;;14.94;92.92
70314;BME280;57725;47.526;18.986;2023-04-25T01:46:25;98663.31;;;14.93;93.10
70314;BME280;57725;47.526;18.986;2023-04-25T01:48:51;98660.69;;;14.93;92.99
70314;BME280;57725;47.526;18.986;2023-04-25T01:51:16;98664.25;;;14.92;93.17
70314;BME280;57725;47.526;18.986;2023-04-25T01:53:45;98663.31;;;14.93;93.19
70314;BME280;57725;47.526;18.986;2023-04-25T01:56:13;98672.03;;;14.93;93.26
70314;BME280;57725;47.526;18.986;2023-04-25T01:58:39;98667.72;;;14.92;93.11
70314;BME280;57725;47.526;18.986;2023-04-25T02:01:04;98680.06;;;14.92;93.19
70314;BME280;57725;47.526;18.986;2023-04-25T02:03:31;98680.16;;;14.90;93.24
70314;BME280;57725;47.526;18.986;2023-04-25T02:05:57;98682.81;;;14.90;93.15
70314;BME280;57725;47.526;18.986;2023-04-25T02:08:29;98682.13;;;14.88;93.38
70314;BME280;57725;47.526;18.986;2023-04-25T02:10:58;98689.03;;;14.89;93.37
70314;BME280;57725;47.526;18.986;2023-04-25T02:13:23;98680.28;;;14.89;93.43
70314;BME280;57725;47.526;18.986;2023-04-25T02:15:49;98681.28;;;14.88;93.33
70314;BME280;57725;47.526;18.986;2023-04-25T02:18:14;98677.09;;;14.85;93.48
70314;BME280;57725;47.526;18.986;2023-04-25T02:20:41;98684.97;;;14.85;93.33
70314;BME280;57725;47.526;18.986;2023-04-25T02:23:09;98688.44;;;14.85;93.41
70314;BME280;57725;47.526;18.986;2023-04-25T02:25:37;98677.19;;;14.83;93.41
70314;BME280;57725;47.526;18.986;2023-04-25T02:28:03;98682.47;;;14.83;93.41
70314;BME280;57725;47.526;18.986;2023-04-25T02:30:30;98689.41;;;14.84;93.36
70314;BME280;57725;47.526;18.986;2023-04-25T02:32:56;98687.72;;;14.83;93.30
70314;BME280;57725;47.526;18.986;2023-04-25T02:35:21;98681.63;;;14.83;93.63
70314;BME280;57725;47.526;18.986;2023-04-25T02:37:47;98677.31;;;14.82;93.35
70314;BME280;57725;47.526;18.986;2023-04-25T02:40:12;98677.31;;;14.82;93.20
70314;BME280;57725;47.526;18.986;2023-04-25T02:42:44;98676.47;;;14.81;93.29
70314;BME280;57725;47.526;18.986;2023-04-25T02:45:21;98678.28;;;14.81;93.30
70314;BME280;57725;47.526;18.986;2023-04-25T02:47:48;98677.31;;;14.82;93.47
70314;BME280;57725;47.526;18.986;2023-04-25T02:50:14;98676.59;;;14.80;93.24
70314;BME280;57725;47.526;18.986;2023-04-25T02:52:42;98672.28;;;14.79;93.36
70314;BME280;57725;47.526;18.986;2023-04-25T02:55:07;98674.91;;;14.79;93.51
70314;BME280;57725;47.526;18.986;2023-04-25T02:57:33;98684.72;;;14.77;93.30
70314;BME280;57725;47.526;18.986;2023-04-25T02:59:58;98669.78;;;14.77;93.29
70314;BME280;57725;47.526;18.986;2023-04-25T03:02:24;98664.91;;;14.73;93.47
70314;BME280;57725;47.526;18.986;2023-04-25T03:04:52;98680.28;;;14.77;93.41
70314;BME280;57725;47.526;18.986;2023-04-25T03:07:17;98669.09;;;14.75;93.48
70314;BME280;57725;47.526;18.986;2023-04-25T03:09:43;98677.81;;;14.76;93.67
70314;BME280;57725;47.526;18.986;2023-04-25T03:12:10;98675.19;;;14.76;93.45
70314;BME280;57725;47.526;18.986;2023-04-25T03:14:36;98662.16;;;14.74;93.47
70314;BME280;57725;47.526;18.986;2023-04-25T03:17:01;98667.53;;;14.73;93.40
70314;BME280;57725;47.526;18.986;2023-04-25T03:19:26;98670.03;;;14.74;93.36
70314;BME280;57725;47.526;18.986;2023-04-25T03:21:54;98673.63;;;14.73;93.58
70314;BME280;57725;47.526;18.986;2023-04-25T03:24:22;98671.84;;;14.74;93.53
70314;BME280;57725;47.526;18.986;2023-04-25T03:26:47;98660.47;;;14.73;93.50
70314;BME280;57725;47.526;18.986;2023-04-25T03:29:22;98672.91;;;14.71;93.62
70314;BME280;57725;47.526;18.986;2023-04-25T03:31:50;98672.06;;;14.71;93.61
70314;BME280;57725;47.526;18.986;2023-04-25T03:34:16;98665.00;;;14.71;93.62
70314;BME280;57725;47.526;18.986;2023-04-25T03:36:43;98670.28;;;14.71;93.67
70314;BME280;57725;47.526;18.986;2023-04-25T03:39:15;98665.97;;;14.70;93.47
70314;BME280;57725;47.526;18.986;2023-04-25T03:41:41;98664.41;;;14.68;93.44
70314;BME280;57725;47.526;18.986;2023-04-25T03:44:06;98666.91;;;14.69;93.64
70314;BME280;57725;47.526;18.986;2023-04-25T03:46:31;98680.06;;;14.69;93.56
70314;BME280;57725;47.526;18.986;2023-04-25T03:48:57;98666.09;;;14.69;93.56
70314;BME280;57725;47.526;18.986;2023-04-25T03:51:22;98671.34;;;14.69;93.50
70314;BME280;57725;47.526;18.986;2023-04-25T03:53:48;98670.75;;;14.65;93.56
70314;BME280;57725;47.526;18.986;2023-04-25T03:56:13;98673.25;;;14.67;93.50
70314;BME280;57725;47.526;18.986;2023-04-25T03:58:39;98682.94;;;14.66;93.56
70314;BME280;57725;47.526;18.986;2023-04-25T04:01:04;98683.88;;;14.65;93.54
70314;BME280;57725;47.526;18.986;2023-04-25T04:03:35;98681.25;;;14.65;93.37
70314;BME280;57725;47.526;18.986;2023-04-25T04:06:04;98687.50;;;14.64;93.51
70314;BME280;57725;47.526;18.986;2023-04-25T04:08:31;98686.78;;;14.62;93.43
70314;BME280;57725;47.526;18.986;2023-04-25T04:10:59;98690.25;;;14.63;93.62
70314;BME280;57725;47.526;18.986;2023-04-25T04:13:27;98693.72;;;14.63;93.71
70314;BME280;57725;47.526;18.986;2023-04-25T04:15:53;98690.25;;;14.63;93.87
70314;BME280;57725;47.526;18.986;2023-04-25T04:18:23;98689.41;;;14.62;93.66
70314;BME280;57725;47.526;18.986;2023-04-25T04:20:51;98699.09;;;14.62;93.74
70314;BME280;57725;47.526;18.986;2023-04-25T04:23:17;98700.88;;;14.61;93.58
70314;BME280;57725;47.526;18.986;2023-04-25T04:25:44;98695.75;;;14.60;93.44
70314;BME280;57725;47.526;18.986;2023-04-25T04:28:10;98698.38;;;14.60;93.68
70314;BME280;57725;47.526;18.986;2023-04-25T04:30:38;98700.16;;;14.59;93.55
70314;BME280;57725;47.526;18.986;2023-04-25T04:33:10;98705.41;;;14.59;93.64
70314;BME280;57725;47.526;18.986;2023-04-25T04:35:38;98705.53;;;14.58;93.32
70314;BME280;57725;47.526;18.986;2023-04-25T04:38:03;98700.28;;;14.58;93.81
70314;BME280;57725;47.526;18.986;2023-04-25T04:40:31;98698.59;;;14.57;93.55
70314;BME280;57725;47.526;18.986;2023-04-25T04:42:57;98703.03;;;14.56;93.50
70314;BME280;57725;47.526;18.986;2023-04-25T04:45:23;98711.75;;;14.57;93.57
70314;BME280;57725;47.526;18.986;2023-04-25T04:47:49;98704.81;;;14.56;93.74
70314;BME280;57725;47.526;18.986;2023-04-25T04:50:19;98713.53;;;14.56;93.83
70314;BME280;57725;47.526;18.986;2023-04-25T04:52:45;98708.41;;;14.55;93.63
70314;BME280;57725;47.526;18.986;2023-04-25T04:55:10;98712.81;;;14.54;93.62
70314;BME280;57725;47.526;18.986;2023-04-25T04:57:40;98715.44;;;14.54;93.74
70314;BME280;57725;47.526;18.986;2023-04-25T05:00:09;98715.44;;;14.54;93.77
70314;BME280;57725;47.526;18.986;2023-04-25T05:02:37;98716.44;;;14.53;93.46
70314;BME280;57725;47.526;18.986;2023-04-25T05:05:04;98707.69;;;14.53;93.64
70314;BME280;57725;47.526;18.986;2023-04-25T05:07:32;98712.97;;;14.53;93.55
70314;BME280;57725;47.526;18.986;2023-04-25T05:09:57;98706.03;;;14.52;93.47
70314;BME280;57725;47.526;18.986;2023-04-25T05:12:25;98710.44;;;14.51;93.83
70314;BME280;57725;47.526;18.986;2023-04-25T05:14:50;98709.59;;;14.51;93.73
70314;BME280;57725;47.526;18.986;2023-04-25T05:17:16;98705.31;;;14.49;93.54
70314;BME280;57725;47.526;18.986;2023-04-25T05:19:41;98714.03;;;14.50;93.61
70314;BME280;57725;47.526;18.986;2023-04-25T05:22:07;98712.34;;;14.49;93.88
70314;BME280;57725;47.526;18.986;2023-04-25T05:24:32;98709.84;;;14.47;93.95
70314;BME280;57725;47.526;18.986;2023-04-25T05:27:00;98718.56;;;14.48;93.70
70314;BME280;57725;47.526;18.986;2023-04-25T05:29:25;98711.63;;;14.47;93.88
70314;BME280;57725;47.526;18.986;2023-04-25T05:31:53;98718.69;;;14.46;93.67
70314;BME280;57725;47.526;18.986;2023-04-25T05:34:19;98715.22;;;14.46;93.92
70314;BME280;57725;47.526;18.986;2023-04-25T05:36:44;98718.69;;;14.46;93.75
70314;BME280;57725;47.526;18.986;2023-04-25T05:39:14;98718.78;;;14.45;93.81
70314;BME280;57725;47.526;18.986;2023-04-25T05:41:42;98706.72;;;14.42;93.66
70314;BME280;57725;47.526;18.986;2023-04-25T05:44:10;98718.91;;;14.43;93.70
70314;BME280;57725;47.526;18.986;2023-04-25T05:46:36;98711.97;;;14.42;93.83
70314;BME280;57725;47.526;18.986;2023-04-25T05:49:01;98712.81;;;14.43;93.80
70314;BME280;57725;47.526;18.986;2023-04-25T05:51:29;98721.69;;;14.42;93.67
70314;BME280;57725;47.526;18.986;2023-04-25T05:53:58;98715.59;;;14.41;93.81
70314;BME280;57725;47.526;18.986;2023-04-25T05:56:24;98727.06;;;14.40;93.64
70314;BME280;57725;47.526;18.986;2023-04-25T05:58:49;98726.22;;;14.40;93.85
70314;BME280;57725;47.526;18.986;2023-04-25T06:01:17;98726.22;;;14.40;93.68
70314;BME280;57725;47.526;18.986;2023-04-25T06:03:47;98720.13;;;14.39;93.52
70314;BME280;57725;47.526;18.986;2023-04-25T06:06:19;98722.94;;;14.36;93.58
70314;BME280;57725;47.526;18.986;2023-04-25T06:08:47;98728.91;;;14.38;93.63
70314;BME280;57725;47.526;18.986;2023-04-25T06:11:12;98725.56;;;14.36;93.71
70314;BME280;57725;47.526;18.986;2023-04-25T06:13:37;98716.00;;;14.35;93.89
70314;BME280;57725;47.526;18.986;2023-04-25T06:16:03;98719.47;;;14.36;93.79
70314;BME280;57725;47.526;18.986;2023-04-25T06:18:31;98732.72;;;14.34;93.61
70314;BME280;57725;47.526;18.986;2023-04-25T06:20:56;98718.75;;;14.34;93.87
70314;BME280;57725;47.526;18.986;2023-04-25T06:23:22;98728.41;;;14.33;93.76
70314;BME280;57725;47.526;18.986;2023-04-25T06:25:49;98725.78;;;14.33;94.01
70314;BME280;57725;47.526;18.986;2023-04-25T06:28:17;98726.75;;;14.32;93.65
70314;BME280;57725;47.526;18.986;2023-04-25T06:30:49;98724.22;;;14.31;93.78
70314;BME280;57725;47.526;18.986;2023-04-25T06:33:14;98721.59;;;14.31;93.63
70314;BME280;57725;47.526;18.986;2023-04-25T06:35:39;98733.09;;;14.30;93.72
70314;BME280;57725;47.526;18.986;2023-04-25T06:38:09;98725.31;;;14.28;94.02
70314;BME280;57725;47.526;18.986;2023-04-25T06:40:35;98726.16;;;14.29;93.73
70314;BME280;57725;47.526;18.986;2023-04-25T06:43:02;98725.31;;;14.28;93.72
70314;BME280;57725;47.526;18.986;2023-04-25T06:45:30;98725.44;;;14.27;93.63
70314;BME280;57725;47.526;18.986;2023-04-25T06:47:58;98733.31;;;14.27;93.63
70314;BME280;57725;47.526;18.986;2023-04-25T06:50:26;98728.06;;;14.27;93.66
70314;BME280;57725;47.526;18.986;2023-04-25T06:52:51;98721.13;;;14.26;93.84
70314;BME280;57725;47.526;18.986;2023-04-25T06:55:16;98724.59;;;14.26;93.84
70314;BME280;57725;47.526;18.986;2023-04-25T06:57:42;98726.50;;;14.24;93.82
70314;BME280;57725;47.526;18.986;2023-04-25T07:00:08;98722.06;;;14.25;93.72
70314;BME280;57725;47.526;18.986;2023-04-25T07:02:35;98723.03;;;14.24;93.68
70314;BME280;57725;47.526;18.986;2023-04-25T07:05:01;98727.44;;;14.23;93.78
70314;BME280;57725;47.526;18.986;2023-04-25T07:07:29;98730.06;;;14.23;93.74
70314;BME280;57725;47.526;18.986;2023-04-25T07:09:57;98725.78;;;14.22;93.69
70314;BME280;57725;47.526;18.986;2023-04-25T07:12:25;98727.56;;;14.22;93.73
70314;BME280;57725;47.526;18.986;2023-04-25T07:14:53;98734.72;;;14.20;93.99
70314;BME280;57725;47.526;18.986;2023-04-25T07:17:21;98722.78;;;14.16;93.83
70314;BME280;57725;47.526;18.986;2023-04-25T07:19:51;98729.34;;;14.21;93.92
70314;BME280;57725;47.526;18.986;2023-04-25T07:22:19;98733.88;;;14.19;94.04
70314;BME280;57725;47.526;18.986;2023-04-25T07:24:44;98732.09;;;14.20;93.82
70314;BME280;57725;47.526;18.986;2023-04-25T07:27:13;98736.50;;;14.19;93.88
70314;BME280;57725;47.526;18.986;2023-04-25T07:29:39;98723.50;;;14.18;93.84
70314;BME280;57725;47.526;18.986;2023-04-25T07:32:07;98730.56;;;14.17;94.01
70314;BME280;57725;47.526;18.986;2023-04-25T07:34:35;98732.34;;;14.17;94.04
70314;BME280;57725;47.526;18.986;2023-04-25T07:37:04;98730.66;;;14.16;93.80
70314;BME280;57725;47.526;18.986;2023-04-25T07:39:30;98729.09;;;14.13;93.88
70314;BME280;57725;47.526;18.986;2023-04-25T07:41:58;98736.75;;;14.16;93.87
70314;BME280;57725;47.526;18.986;2023-04-25T07:44:24;98730.88;;;14.12;93.93
70314;BME280;57725;47.526;18.986;2023-04-25T07:46:51;98736.97;;;14.13;94.04
70314;BME280;57725;47.526;18.986;2023-04-25T07:49:21;98736.88;;;14.14;93.83
70314;BME280;57725;47.526;18.986;2023-04-25T07:51:49;98727.41;;;14.12;93.92
70314;BME280;57725;47.526;18.986;2023-04-25T07:54:17;98738.78;;;14.12;93.91
70314;BME280;57725;47.526;18.986;2023-04-25T07:56:42;98744.03;;;14.12;94.07
70314;BME280;57725;47.526;18.986;2023-04-25T07:59:12;98735.41;;;14.10;94.13
70314;BME280;57725;47.526;18.986;2023-04-25T08:01:40;98735.31;;;14.12;94.12
70314;BME280;57725;47.526;18.986;2023-04-25T08:04:06;98732.78;;;14.10;93.84
70314;BME280;57725;47.526;18.986;2023-04-25T08:06:31;98729.22;;;14.11;93.92
70314;BME280;57725;47.526;18.986;2023-04-25T08:08:59;98731.00;;;14.11;94.17
70314;BME280;57725;47.526;18.986;2023-04-25T08:11:24;98734.56;;;14.10;94.35
70314;BME280;57725;47.526;18.986;2023-04-25T08:13:50;98747.72;;;14.10;94.22
70314;BME280;57725;47.526;18.986;2023-04-25T08:16:20;98731.94;;;14.10;94.31
70314;BME280;57725;47.526;18.986;2023-04-25T08:18:49;98748.56;;;14.10;94.64
70314;BME280;57725;47.526;18.986;2023-04-25T08:21:17;98752.13;;;14.09;94.29
70314;BME280;57725;47.526;18.986;2023-04-25T08:23:45;98745.09;;;14.10;94.14
70314;BME280;57725;47.526;18.986;2023-04-25T08:26:10;98739.94;;;14.08;94.11
70314;BME280;57725;47.526;18.986;2023-04-25T08:28:36;98753.09;;;14.08;94.26
70314;BME280;57725;47.526;18.986;2023-04-25T08:31:01;98749.50;;;14.09;94.35
70314;BME280;57725;47.526;18.986;2023-04-25T08:33:26;98752.25;;;14.08;94.18
70314;BME280;57725;47.526;18.986;2023-04-25T08:35:54;98761.81;;;14.09;93.98
70314;BME280;57725;47.526;18.986;2023-04-25T08:38:22;98755.84;;;14.07;94.43
70314;BME280;57725;47.526;18.986;2023-04-25T08:40:51;98760.13;;;14.08;94.19
70314;BME280;57725;47.526;18.986;2023-04-25T08:43:19;98778.53;;;14.08;94.27
70314;BME280;57725;47.526;18.986;2023-04-25T08:45:46;98769.69;;;14.09;94.36
70314;BME280;57725;47.526;18.986;2023-04-25T08:48:15;98772.56;;;14.06;94.49
70314;BME280;57725;47.526;18.986;2023-04-25T08:50:52;98766.38;;;14.07;94.36
70314;BME280;57725;47.526;18.986;2023-04-25T08:53:33;98770.78;;;14.06;94.31
70314;BME280;57725;47.526;18.986;2023-04-25T08:56:01;98769.84;;;14.07;94.34
70314;BME280;57725;47.526;18.986;2023-04-25T08:58:28;98777.72;;;14.07;94.27
70314;BME280;57725;47.526;18.986;2023-04-25T09:00:55;98783.78;;;14.08;94.38
70314;BME280;57725;47.526;18.986;2023-04-25T09:03:21;98770.63;;;14.08;94.25
70314;BME280;57725;47.526;18.986;2023-04-25T09:05:46;98773.28;;;14.08;94.17
70314;BME280;57725;47.526;18.986;2023-04-25T09:08:15;98781.16;;;14.08;94.34
70314;BME280;57725;47.526;18.986;2023-04-25T09:10:40;98778.53;;;14.08;94.08
70314;BME280;57725;47.526;18.986;2023-04-25T09:13:11;98782.97;;;14.07;94.53
70314;BME280;57725;47.526;18.986;2023-04-25T09:16:00;98782.97;;;14.07;94.53
70314;BME280;57725;47.526;18.986;2023-04-25T09:20:56;98785.47;;;14.09;94.52
70314;BME280;57725;47.526;18.986;2023-04-25T09:23:23;98787.38;;;14.07;94.56
70314;BME280;57725;47.526;18.986;2023-04-25T09:25:50;98782.00;;;14.08;94.54
70314;BME280;57725;47.526;18.986;2023-04-25T09:28:15;98784.63;;;14.08;94.49
70314;BME280;57725;47.526;18.986;2023-04-25T09:30:41;98771.47;;;14.08;94.46
70314;BME280;57725;47.526;18.986;2023-04-25T09:33:10;98786.28;;;14.09;94.47
70314;BME280;57725;47.526;18.986;2023-04-25T09:35:40;98779.38;;;14.08;94.51
70314;BME280;57725;47.526;18.986;2023-04-25T09:38:14;98774.84;;;14.10;94.47
70314;BME280;57725;47.526;18.986;2023-04-25T09:40:43;98768.75;;;14.10;94.61
70314;BME280;57725;47.526;18.986;2023-04-25T09:43:29;98772.22;;;14.10;94.52
70314;BME280;57725;47.526;18.986;2023-04-25T09:45:54;98786.19;;;14.11;94.39
70314;BME280;57725;47.526;18.986;2023-04-25T09:48:25;98765.16;;;14.11;94.63
70314;BME280;57725;47.526;18.986;2023-04-25T09:53:46;98779.97;;;14.12;94.49
70314;BME280;57725;47.526;18.986;2023-04-25T09:56:14;98772.09;;;14.12;94.50
70314;BME280;57725;47.526;18.986;2023-04-25T09:58:43;98763.25;;;14.13;94.63
70314;BME280;57725;47.526;18.986;2023-04-25T10:01:10;98764.22;;;14.12;94.56
70314;BME280;57725;47.526;18.986;2023-04-25T10:03:41;98778.09;;;14.14;94.77
70314;BME280;57725;47.526;18.986;2023-04-25T10:06:14;98778.94;;;14.14;94.60
70314;BME280;57725;47.526;18.986;2023-04-25T10:08:44;98784.19;;;14.14;94.77
70314;BME280;57725;47.526;18.986;2023-04-25T10:11:10;98780.59;;;14.16;94.71
70314;BME280;57725;47.526;18.986;2023-04-25T10:13:41;98777.13;;;14.15;94.63
70314;BME280;57725;47.526;18.986;2023-04-25T10:16:10;98778.81;;;14.16;94.68
70314;BME280;57725;47.526;18.986;2023-04-25T10:18:40;98764.84;;;14.16;94.65
70314;BME280;57725;47.526;18.986;2023-04-25T10:21:06;98774.41;;;14.17;94.74
70314;BME280;57725;47.526;18.986;2023-04-25T10:23:32;98779.66;;;14.17;94.76
70314;BME280;57725;47.526;18.986;2023-04-25T10:25:59;98777.88;;;14.17;94.72
70314;BME280;57725;47.526;18.986;2023-04-25T10:28:25;98770.81;;;14.18;94.56
70314;BME280;57725;47.526;18.986;2023-04-25T10:30:57;98778.56;;;14.19;94.68
70314;BME280;57725;47.526;18.986;2023-04-25T10:33:36;98774.16;;;14.20;94.91
70314;BME280;57725;47.526;18.986;2023-04-25T10:36:17;98769.72;;;14.20;94.75
70314;BME280;57725;47.526;18.986;2023-04-25T10:38:45;98767.09;;;14.20;94.74
70314;BME280;57725;47.526;18.986;2023-04-25T10:41:17;98774.03;;;14.21;94.92
70314;BME280;57725;47.526;18.986;2023-04-25T10:44:01;98777.50;;;14.22;94.94
70314;BME280;57725;47.526;18.986;2023-04-25T10:46:29;98774.88;;;14.22;94.83
70314;BME280;57725;47.526;18.986;2023-04-25T10:49:00;98778.34;;;14.22;94.80
70314;BME280;57725;47.526;18.986;2023-04-25T10:51:32;98779.91;;;14.25;94.85
70314;BME280;57725;47.526;18.986;2023-04-25T10:54:02;98786.84;;;14.26;94.71
70314;BME280;57725;47.526;18.986;2023-04-25T10:59:16;98774.53;;;14.26;95.02
70314;BME280;57725;47.526;18.986;2023-04-25T11:01:43;98781.47;;;14.27;94.61
70314;BME280;57725;47.526;18.986;2023-04-25T11:04:24;98779.69;;;14.28;94.72
70314;BME280;57725;47.526;18.986;2023-04-25T11:09:36;98784.84;;;14.29;94.71
70314;BME280;57725;47.526;18.986;2023-04-25T11:12:03;98777.78;;;14.30;94.72
70314;BME280;57725;47.526;18.986;2023-04-25T11:14:32;98785.53;;;14.31;94.86
70314;BME280;57725;47.526;18.986;2023-04-25T11:17:00;98780.16;;;14.33;94.92
70314;BME280;57725;47.526;18.986;2023-04-25T11:19:28;98784.59;;;14.32;95.04
70314;BME280;57725;47.526;18.986;2023-04-25T11:21:58;98794.16;;;14.33;94.89
70314;BME280;57725;47.526;18.986;2023-04-25T11:24:31;98793.19;;;14.34;94.96
70314;BME280;57725;47.526;18.986;2023-04-25T11:27:03;98794.03;;;14.35;94.66
70314;BME280;57725;47.526;18.986;2023-04-25T11:29:30;98793.09;;;14.36;94.76
70314;BME280;57725;47.526;18.986;2023-04-25T11:31:56;98789.50;;;14.37;94.81
70314;BME280;57725;47.526;18.986;2023-04-25T11:34:26;98808.75;;;14.37;94.77
70314;BME280;57725;47.526;18.986;2023-04-25T11:36:56;98799.91;;;14.38;94.75
70314;BME280;57725;47.526;18.986;2023-04-25T11:39:25;98800.75;;;14.39;94.73
70314;BME280;57725;47.526;18.986;2023-04-25T11:41:51;98800.75;;;14.39;94.70
70314;BME280;57725;47.526;18.986;2023-04-25T11:44:17;98806.88;;;14.39;94.55
70314;BME280;57725;47.526;18.986;2023-04-25T11:46:43;98811.06;;;14.42;94.47
70314;BME280;57725;47.526;18.986;2023-04-25T11:49:11;98806.63;;;14.42;94.79
70314;BME280;57725;47.526;18.986;2023-04-25T11:51:40;98824.09;;;14.43;95.12
70314;BME280;57725;47.526;18.986;2023-04-25T11:54:09;98827.56;;;14.44;95.05
70314;BME280;57725;47.526;18.986;2023-04-25T11:56:34;98821.34;;;14.45;95.06
70314;BME280;57725;47.526;18.986;2023-04-25T11:59:05;98826.59;;;14.45;95.02
70314;BME280;57725;47.526;18.986;2023-04-25T12:01:31;98830.06;;;14.45;95.08
70314;BME280;57725;47.526;18.986;2023-04-25T12:04:11;98845.75;;;14.47;95.13
70314;BME280;57725;47.526;18.986;2023-04-25T12:06:40;98836.16;;;14.46;95.14
70314;BME280;57725;47.526;18.986;2023-04-25T12:09:11;98841.22;;;14.49;94.97
70314;BME280;57725;47.526;18.986;2023-04-25T12:11:43;98838.56;;;14.49;94.83
70314;BME280;57725;47.526;18.986;2023-04-25T12:14:10;98832.47;;;14.48;95.00
70314;BME280;57725;47.526;18.986;2023-04-25T12:16:46;98823.63;;;14.49;94.90
70314;BME280;57725;47.526;18.986;2023-04-25T12:19:18;98839.31;;;14.51;94.95
70314;BME280;57725;47.526;18.986;2023-04-25T12:21:44;98824.47;;;14.50;94.96
70314;BME280;57725;47.526;18.986;2023-04-25T12:24:17;98833.94;;;14.53;94.93
70314;BME280;57725;47.526;18.986;2023-04-25T12:26:51;98818.16;;;14.53;95.04
70314;BME280;57725;47.526;18.986;2023-04-25T12:29:21;98826.03;;;14.53;94.98
70314;BME280;57725;47.526;18.986;2023-04-25T12:31:53;98820.66;;;14.54;95.31
70314;BME280;57725;47.526;18.986;2023-04-25T12:34:22;98810.97;;;14.55;94.97
70314;BME280;57725;47.526;18.986;2023-04-25T12:36:50;98806.53;;;14.55;95.19
70314;BME280;57725;47.526;18.986;2023-04-25T12:39:19;98803.81;;;14.57;95.11
70314;BME280;57725;47.526;18.986;2023-04-25T12:41:47;98803.81;;;14.57;95.18
70314;BME280;57725;47.526;18.986;2023-04-25T12:44:13;98809.91;;;14.57;95.03
70314;BME280;57725;47.526;18.986;2023-04-25T12:46:42;98803.69;;;14.58;95.27
70314;BME280;57725;47.526;18.986;2023-04-25T12:49:08;98795.78;;;14.58;95.48
70314;BME280;57725;47.526;18.986;2023-04-25T12:51:36;98797.59;;;14.58;95.09
70314;BME280;57725;47.526;18.986;2023-04-25T12:54:05;98795.78;;;14.58;95.05
70314;BME280;57725;47.526;18.986;2023-04-25T12:56:34;98792.09;;;14.61;95.45
70314;BME280;57725;47.526;18.986;2023-04-25T12:59:00;98792.94;;;14.61;95.54
70314;BME280;57725;47.526;18.986;2023-04-25T13:01:31;98785.06;;;14.61;95.27
70314;BME280;57725;47.526;18.986;2023-04-25T13:03:57;98798.09;;;14.63;95.33